createdAt,value
2023-06-26T00:00:43.919Z,602.00
2023-06-26T00:01:44.030Z,602.00
2023-06-26T00:02:43.801Z,601.00
2023-06-26T00:03:43.893Z,601.00
2023-06-26T00:04:43.846Z,600.00
2023-06-26T00:05:43.890Z,603.00
2023-06-26T00:06:43.963Z,603.00
2023-06-26T00:07:44.915Z,600.00
2023-06-26T00:08:44.011Z,598.00
2023-06-26T00:09:44.014Z,599.00
2023-06-26T00:10:44.052Z,598.00
2023-06-26T00:11:44.093Z,597.00
2023-06-26T00:12:44.131Z,594.00
2023-06-26T00:13:44.252Z,592.00
2023-06-26T00:14:44.203Z,596.00
2023-06-26T00:15:44.239Z,598.00
2023-06-26T00:16:44.275Z,598.00
2023-06-26T00:17:44.414Z,597.00
2023-06-26T00:18:44.343Z,599.00
2023-06-26T00:19:44.393Z,597.00
2023-06-26T00:20:44.437Z,597.00
2023-06-26T00:21:44.470Z,597.00
2023-06-26T00:22:44.567Z,599.00
2023-06-26T00:23:44.592Z,598.00
2023-06-26T00:24:44.597Z,596.00
2023-06-26T00:25:44.631Z,597.00
2023-06-26T00:26:44.673Z,595.00
2023-06-26T00:27:44.714Z,595.00
2023-06-26T00:28:44.760Z,592.00
2023-06-26T00:29:44.837Z,594.00
2023-06-26T00:30:44.857Z,594.00
2023-06-26T00:31:44.944Z,593.00
2023-06-26T00:32:45.000Z,594.00
2023-06-26T00:33:44.991Z,596.00
2023-06-26T00:34:45.026Z,598.00
2023-06-26T00:35:45.091Z,598.00
2023-06-26T00:36:45.122Z,597.00
2023-06-26T00:37:45.148Z,594.00
2023-06-26T00:38:45.192Z,596.00
2023-06-26T00:39:45.230Z,593.00
2023-06-26T00:40:45.294Z,595.00
2023-06-26T00:41:45.314Z,592.00
2023-06-26T00:42:45.378Z,592.00
2023-06-26T00:43:45.398Z,595.00
2023-06-26T00:44:45.444Z,594.00
2023-06-26T00:45:45.560Z,594.00
2023-06-26T00:46:45.575Z,593.00
2023-06-26T00:47:45.652Z,597.00
2023-06-26T00:48:46.694Z,598.00
2023-06-26T00:49:45.744Z,601.00
2023-06-26T00:50:45.749Z,601.00
2023-06-26T00:51:45.799Z,601.00
2023-06-26T00:52:45.835Z,602.00
2023-06-26T00:53:48.440Z,601.00
2023-06-26T00:54:45.898Z,598.00
2023-06-26T00:55:46.439Z,597.00
2023-06-26T00:56:45.834Z,596.00
2023-06-26T00:57:45.865Z,596.00
2023-06-26T00:58:45.834Z,598.00
2023-06-26T00:59:45.831Z,598.00
2023-06-26T01:00:45.833Z,599.00
2023-06-26T01:01:45.902Z,602.00
2023-06-26T01:02:45.939Z,604.00
2023-06-26T01:03:45.854Z,604.00
2023-06-26T01:04:46.446Z,604.00
2023-06-26T01:05:45.842Z,603.00
2023-06-26T01:06:45.983Z,598.00
2023-06-26T01:07:45.846Z,599.00
2023-06-26T01:08:45.863Z,600.00
2023-06-26T01:09:45.866Z,601.00
2023-06-26T01:10:45.878Z,597.00
2023-06-26T01:11:45.868Z,596.00
2023-06-26T01:12:45.874Z,595.00
2023-06-26T01:13:45.905Z,596.00
2023-06-26T01:14:45.943Z,597.00
2023-06-26T01:15:45.998Z,599.00
2023-06-26T01:16:46.052Z,599.00
2023-06-26T01:17:46.291Z,600.00
2023-06-26T01:18:46.456Z,600.00
2023-06-26T01:19:46.305Z,607.00
2023-06-26T01:20:46.470Z,608.00
2023-06-26T01:21:46.952Z,604.00
2023-06-26T01:22:46.382Z,600.00
2023-06-26T01:23:46.442Z,599.00
2023-06-26T01:24:46.500Z,600.00
2023-06-26T01:25:46.548Z,602.00
2023-06-26T01:26:46.602Z,603.00
2023-06-26T01:27:46.665Z,605.00
2023-06-26T01:28:46.726Z,605.00
2023-06-26T01:29:46.771Z,604.00
2023-06-26T01:30:46.844Z,604.00
2023-06-26T01:31:46.957Z,606.00
2023-06-26T01:32:47.053Z,605.00
2023-06-26T01:33:48.008Z,605.00
2023-06-26T01:34:47.073Z,606.00
2023-06-26T01:35:47.129Z,605.00
2023-06-26T01:36:47.180Z,607.00
2023-06-26T01:37:47.240Z,606.00
2023-06-26T01:38:47.298Z,603.00
2023-06-26T01:39:47.367Z,601.00
2023-06-26T01:40:47.417Z,598.00
2023-06-26T01:41:47.477Z,596.00
2023-06-26T01:42:47.537Z,596.00
2023-06-26T01:43:47.581Z,597.00
2023-06-26T01:44:47.639Z,597.00
2023-06-26T01:45:47.772Z,599.00
2023-06-26T01:46:47.752Z,599.00
2023-06-26T01:47:47.885Z,600.00
2023-06-26T01:48:47.877Z,600.00
2023-06-26T01:49:47.943Z,597.00
2023-06-26T01:50:47.968Z,597.00
2023-06-26T01:51:48.023Z,594.00
2023-06-26T01:52:48.092Z,593.00
2023-06-26T01:53:48.147Z,594.00
2023-06-26T01:54:48.192Z,594.00
2023-06-26T01:55:48.269Z,595.00
2023-06-26T01:56:48.298Z,596.00
2023-06-26T01:57:48.348Z,593.00
2023-06-26T01:58:48.514Z,592.00
2023-06-26T01:59:48.443Z,591.00
2023-06-26T02:00:48.548Z,593.00
2023-06-26T02:01:48.590Z,599.00
2023-06-26T02:02:48.673Z,601.00
2023-06-26T02:03:48.686Z,600.00
2023-06-26T02:04:48.692Z,598.00
2023-06-26T02:05:48.790Z,598.00
2023-06-26T02:06:48.885Z,599.00
2023-06-26T02:07:48.850Z,596.00
2023-06-26T02:08:48.904Z,598.00
2023-06-26T02:09:48.960Z,600.00
2023-06-26T02:10:49.006Z,598.00
2023-06-26T02:11:49.087Z,596.00
2023-06-26T02:12:49.108Z,598.00
2023-06-26T02:13:49.175Z,597.00
2023-06-26T02:14:49.223Z,597.00
2023-06-26T02:15:49.277Z,601.00
2023-06-26T02:16:49.332Z,601.00
2023-06-26T02:17:49.551Z,603.00
2023-06-26T02:18:49.463Z,604.00
2023-06-26T02:19:49.492Z,608.00
2023-06-26T02:20:49.552Z,607.00
2023-06-26T02:21:50.524Z,607.00
2023-06-26T02:22:49.653Z,605.00
2023-06-26T02:23:49.758Z,608.00
2023-06-26T02:24:49.772Z,607.00
2023-06-26T02:25:49.974Z,607.00
2023-06-26T02:26:49.875Z,607.00
2023-06-26T02:27:49.921Z,605.00
2023-06-26T02:28:49.972Z,605.00
2023-06-26T02:29:50.052Z,605.00
2023-06-26T02:30:50.516Z,604.00
2023-06-26T02:31:50.146Z,605.00
2023-06-26T02:32:50.292Z,603.00
2023-06-26T02:33:50.261Z,605.00
2023-06-26T02:34:50.316Z,604.00
2023-06-26T02:35:50.387Z,605.00
2023-06-26T02:36:50.438Z,610.00
2023-06-26T02:37:50.524Z,612.00
2023-06-26T02:38:50.556Z,613.00
2023-06-26T02:39:50.618Z,610.00
2023-06-26T02:40:50.708Z,610.00
2023-06-26T02:41:50.725Z,609.00
2023-06-26T02:42:50.786Z,605.00
2023-06-26T02:43:51.484Z,603.00
2023-06-26T02:44:50.893Z,603.00
2023-06-26T02:45:50.957Z,604.00
2023-06-26T02:46:51.062Z,607.00
2023-06-26T02:47:52.012Z,606.00
2023-06-26T02:48:51.105Z,607.00
2023-06-26T02:49:51.168Z,605.00
2023-06-26T02:50:51.221Z,609.00
2023-06-26T02:51:51.285Z,607.00
2023-06-26T02:52:51.335Z,609.00
2023-06-26T02:53:51.432Z,611.00
2023-06-26T02:54:51.472Z,607.00
2023-06-26T02:55:51.535Z,610.00
2023-06-26T02:56:51.586Z,609.00
2023-06-26T02:57:51.652Z,610.00
2023-06-26T02:58:51.719Z,608.00
2023-06-26T02:59:51.788Z,609.00
2023-06-26T03:00:51.904Z,608.00
2023-06-26T03:01:52.489Z,608.00
2023-06-26T03:02:51.981Z,606.00
2023-06-26T03:03:52.115Z,610.00
2023-06-26T03:04:52.097Z,608.00
2023-06-26T03:05:52.155Z,611.00
2023-06-26T03:06:52.235Z,612.00
2023-06-26T03:07:52.289Z,612.00
2023-06-26T03:08:52.350Z,612.00
2023-06-26T03:09:52.442Z,609.00
2023-06-26T03:10:52.473Z,607.00
2023-06-26T03:11:52.538Z,605.00
2023-06-26T03:12:52.601Z,605.00
2023-06-26T03:13:52.679Z,602.00
2023-06-26T03:14:52.762Z,604.00
2023-06-26T03:15:52.820Z,606.00
2023-06-26T03:16:52.971Z,605.00
2023-06-26T03:17:52.994Z,606.00
2023-06-26T03:18:53.993Z,608.00
2023-06-26T03:19:53.059Z,609.00
2023-06-26T03:20:53.999Z,609.00
2023-06-26T03:21:53.189Z,608.00
2023-06-26T03:22:53.247Z,609.00
2023-06-26T03:23:53.320Z,611.00
2023-06-26T03:24:53.385Z,609.00
2023-06-26T03:25:53.479Z,606.00
2023-06-26T03:26:53.512Z,603.00
2023-06-26T03:27:53.586Z,602.00
2023-06-26T03:28:53.645Z,604.00
2023-06-26T03:29:53.724Z,607.00
2023-06-26T03:30:53.790Z,611.00
2023-06-26T03:31:53.849Z,614.00
2023-06-26T03:32:54.563Z,613.00
2023-06-26T03:33:53.996Z,616.00
2023-06-26T03:34:54.073Z,613.00
2023-06-26T03:35:54.125Z,613.00
2023-06-26T03:36:54.186Z,614.00
2023-06-26T03:37:54.266Z,614.00
2023-06-26T03:38:54.335Z,615.00
2023-06-26T03:39:54.397Z,617.00
2023-06-26T03:40:54.469Z,616.00
2023-06-26T03:41:55.530Z,611.00
2023-06-26T03:42:54.600Z,607.00
2023-06-26T03:43:54.672Z,608.00
2023-06-26T03:44:54.748Z,608.00
2023-06-26T03:45:54.881Z,609.00
2023-06-26T03:46:54.868Z,610.00
2023-06-26T03:47:54.938Z,612.00
2023-06-26T03:48:55.006Z,614.00
2023-06-26T03:49:55.065Z,613.00
2023-06-26T03:50:55.135Z,609.00
2023-06-26T03:51:55.195Z,609.00
2023-06-26T03:52:55.284Z,609.00
2023-06-26T03:53:55.341Z,607.00
2023-06-26T03:54:55.415Z,608.00
2023-06-26T03:55:55.479Z,607.00
2023-06-26T03:56:55.540Z,609.00
2023-06-26T03:57:55.629Z,609.00
2023-06-26T03:58:55.667Z,611.00
2023-06-26T03:59:55.737Z,615.00
2023-06-26T04:00:55.800Z,615.00
2023-06-26T04:01:55.889Z,613.00
2023-06-26T04:02:55.948Z,614.00
2023-06-26T04:03:56.518Z,614.00
2023-06-26T04:04:56.150Z,613.00
2023-06-26T04:05:56.146Z,611.00
2023-06-26T04:06:56.246Z,610.00
2023-06-26T04:07:56.270Z,611.00
2023-06-26T04:08:56.336Z,611.00
2023-06-26T04:09:56.408Z,609.00
2023-06-26T04:10:56.490Z,611.00
2023-06-26T04:11:56.542Z,612.00
2023-06-26T04:12:56.598Z,610.00
2023-06-26T04:13:56.688Z,608.00
2023-06-26T04:14:56.727Z,606.00
2023-06-26T04:15:56.801Z,608.00
2023-06-26T04:16:56.864Z,608.00
2023-06-26T04:17:56.993Z,606.00
2023-06-26T04:18:57.079Z,607.00
2023-06-26T04:19:57.069Z,608.00
2023-06-26T04:20:57.138Z,607.00
2023-06-26T04:21:57.189Z,606.00
2023-06-26T04:22:57.257Z,607.00
2023-06-26T04:23:57.330Z,607.00
2023-06-26T04:24:57.407Z,606.00
2023-06-26T04:25:57.457Z,608.00
2023-06-26T04:26:57.527Z,608.00
2023-06-26T04:27:57.592Z,607.00
2023-06-26T04:28:57.663Z,605.00
2023-06-26T04:29:57.764Z,608.00
2023-06-26T04:30:57.811Z,608.00
2023-06-26T04:31:57.968Z,610.00
2023-06-26T04:32:57.953Z,608.00
2023-06-26T04:33:58.014Z,606.00
2023-06-26T04:34:58.076Z,605.00
2023-06-26T04:35:58.200Z,606.00
2023-06-26T04:36:58.186Z,607.00
2023-06-26T04:37:58.257Z,608.00
2023-06-26T04:38:58.324Z,609.00
2023-06-26T04:39:58.387Z,608.00
2023-06-26T04:40:58.455Z,608.00
2023-06-26T04:41:58.520Z,608.00
2023-06-26T04:42:58.586Z,607.00
2023-06-26T04:43:58.688Z,608.00
2023-06-26T04:44:58.724Z,608.00
2023-06-26T04:45:58.875Z,608.00
2023-06-26T04:46:58.862Z,610.00
2023-06-26T04:47:59.586Z,611.00
2023-06-26T04:48:59.006Z,610.00
2023-06-26T04:50:00.041Z,614.00
2023-06-26T04:50:59.559Z,614.00
2023-06-26T04:52:00.067Z,613.00
2023-06-26T04:52:59.257Z,615.00
2023-06-26T04:53:59.317Z,613.00
2023-06-26T04:54:59.391Z,611.00
2023-06-26T04:55:59.474Z,613.00
2023-06-26T04:56:59.527Z,616.00
2023-06-26T04:57:59.600Z,616.00
2023-06-26T04:58:59.678Z,615.00
2023-06-26T04:59:59.739Z,616.00
2023-06-26T05:00:59.882Z,617.00
2023-06-26T05:01:59.982Z,616.00
2023-06-26T05:03:00.038Z,621.00
2023-06-26T05:04:00.020Z,621.00
2023-06-26T05:05:00.070Z,621.00
2023-06-26T05:06:02.335Z,622.00
2023-06-26T05:07:01.187Z,618.00
2023-06-26T05:08:00.168Z,617.00
2023-06-26T05:09:00.273Z,614.00
2023-06-26T05:10:00.271Z,611.00
2023-06-26T05:11:00.313Z,609.00
2023-06-26T05:12:00.373Z,608.00
2023-06-26T05:13:00.427Z,612.00
2023-06-26T05:14:00.496Z,610.00
2023-06-26T05:15:00.559Z,611.00
2023-06-26T05:16:00.615Z,613.00
2023-06-26T05:17:00.661Z,611.00
2023-06-26T05:18:59.775Z,612.00
2023-06-26T05:20:00.829Z,614.00
2023-06-26T05:21:01.100Z,612.00
2023-06-26T05:22:00.949Z,612.00
2023-06-26T05:23:01.008Z,613.00
2023-06-26T05:24:01.064Z,615.00
2023-06-26T05:25:01.133Z,622.00
2023-06-26T05:26:01.194Z,640.00
2023-06-26T05:27:01.278Z,660.00
2023-06-26T05:28:01.352Z,667.00
2023-06-26T05:29:01.392Z,668.00
2023-06-26T05:30:01.433Z,674.00
2023-06-26T05:31:01.496Z,674.00
2023-06-26T05:32:01.532Z,678.00
2023-06-26T05:33:01.596Z,680.00
2023-06-26T05:34:01.610Z,679.00
2023-06-26T05:35:01.630Z,682.00
2023-06-26T05:36:01.635Z,682.00
2023-06-26T05:37:01.669Z,681.00
2023-06-26T05:38:01.734Z,676.00
2023-06-26T05:39:01.763Z,679.00
2023-06-26T05:40:04.566Z,676.00
2023-06-26T05:41:02.062Z,674.00
2023-06-26T05:42:01.856Z,677.00
2023-06-26T05:43:01.852Z,678.00
2023-06-26T05:44:01.940Z,677.00
2023-06-26T05:45:01.889Z,676.00
2023-06-26T05:46:02.071Z,675.00
2023-06-26T05:47:01.950Z,675.00
2023-06-26T05:48:02.026Z,675.00
2023-06-26T05:49:02.061Z,673.00
2023-06-26T05:50:02.022Z,671.00
2023-06-26T05:51:02.308Z,675.00
2023-06-26T05:52:02.409Z,678.00
2023-06-26T05:53:02.078Z,680.00
2023-06-26T05:54:02.077Z,685.00
2023-06-26T05:55:02.102Z,691.00
2023-06-26T05:56:02.626Z,699.00
2023-06-26T05:57:02.180Z,744.00
2023-06-26T05:58:02.202Z,776.00
2023-06-26T05:59:02.201Z,781.00
2023-06-26T06:00:02.246Z,784.00
2023-06-26T06:01:02.589Z,793.00
2023-06-26T06:02:02.382Z,799.00
2023-06-26T06:03:03.364Z,806.00
2023-06-26T06:04:02.388Z,817.00
2023-06-26T06:05:05.600Z,822.00
2023-06-26T06:06:03.082Z,828.00
2023-06-26T06:07:02.445Z,875.00
2023-06-26T06:08:05.647Z,882.00
2023-06-26T06:09:03.440Z,889.00
2023-06-26T06:10:02.642Z,894.00
2023-06-26T06:11:02.611Z,898.00
2023-06-26T06:12:02.488Z,898.00
2023-06-26T06:13:02.596Z,907.00
2023-06-26T06:14:02.524Z,957.00
2023-06-26T06:15:03.461Z,948.00
2023-06-26T06:16:02.536Z,941.00
2023-06-26T06:17:02.579Z,930.00
2023-06-26T06:18:02.638Z,934.00
2023-06-26T06:19:02.585Z,970.00
2023-06-26T06:20:02.619Z,976.00
2023-06-26T06:21:02.636Z,973.00
2023-06-26T06:22:02.626Z,983.00
2023-06-26T06:23:02.618Z,994.00
2023-06-26T06:24:03.083Z,993.00
2023-06-26T06:25:02.649Z,994.00
2023-06-26T06:26:02.656Z,989.00
2023-06-26T06:27:02.812Z,993.00
2023-06-26T06:28:03.433Z,1081.00
2023-06-26T06:29:03.200Z,1057.00
2023-06-26T06:30:02.924Z,1026.00
2023-06-26T06:31:03.015Z,1020.00
2023-06-26T06:32:03.085Z,1023.00
2023-06-26T06:33:03.196Z,1018.00
2023-06-26T06:34:03.618Z,1014.00
2023-06-26T06:35:03.311Z,1016.00
2023-06-26T06:36:03.585Z,1023.00
2023-06-26T06:37:03.444Z,1031.00
2023-06-26T06:38:03.495Z,1042.00
2023-06-26T06:39:03.569Z,1040.00
2023-06-26T06:40:04.118Z,1029.00
2023-06-26T06:41:03.725Z,1014.00
2023-06-26T06:42:03.763Z,1008.00
2023-06-26T06:43:03.810Z,1028.00
2023-06-26T06:44:03.863Z,1030.00
2023-06-26T06:45:04.105Z,1176.00
2023-06-26T06:46:03.968Z,979.00
2023-06-26T06:47:04.025Z,844.00
2023-06-26T06:48:04.157Z,861.00
2023-06-26T06:49:04.589Z,808.00
2023-06-26T06:50:04.219Z,788.00
2023-06-26T06:51:04.297Z,773.00
2023-06-26T06:52:04.795Z,748.00
2023-06-26T06:53:04.458Z,742.00
2023-06-26T06:54:04.462Z,732.00
2023-06-26T06:55:04.525Z,730.00
2023-06-26T06:56:05.101Z,728.00
2023-06-26T06:57:05.088Z,721.00
2023-06-26T06:58:06.127Z,715.00
2023-06-26T06:59:04.937Z,712.00
2023-06-26T07:00:05.012Z,714.00
2023-06-26T07:01:05.083Z,715.00
2023-06-26T07:02:05.675Z,723.00
2023-06-26T07:03:05.363Z,752.00
2023-06-26T07:04:05.344Z,763.00
2023-06-26T07:05:05.309Z,775.00
2023-06-26T07:06:05.600Z,887.00
2023-06-26T07:07:05.522Z,918.00
2023-06-26T07:08:06.472Z,926.00
2023-06-26T07:09:05.487Z,990.00
2023-06-26T07:10:05.528Z,970.00
2023-06-26T07:11:06.095Z,956.00
2023-06-26T07:12:05.570Z,952.00
2023-06-26T07:13:05.594Z,946.00
2023-06-26T07:14:05.633Z,974.00
2023-06-26T07:15:06.124Z,1071.00
2023-06-26T07:16:06.122Z,1075.00
2023-06-26T07:17:05.684Z,1074.00
2023-06-26T07:18:05.742Z,1066.00
2023-06-26T07:19:05.710Z,1062.00
2023-06-26T07:20:07.104Z,1055.00
2023-06-26T07:21:06.099Z,1038.00
2023-06-26T07:22:05.757Z,1041.00
2023-06-26T07:23:05.748Z,1125.00
2023-06-26T07:24:05.760Z,1078.00
2023-06-26T07:25:05.755Z,1121.00
2023-06-26T07:26:06.125Z,1165.00
2023-06-26T07:27:05.745Z,1183.00
2023-06-26T07:28:05.719Z,1122.00
2023-06-26T07:29:05.752Z,1114.00
2023-06-26T07:30:05.722Z,1117.00
2023-06-26T07:31:06.125Z,1131.00
2023-06-26T07:32:05.717Z,1198.00
2023-06-26T07:33:05.700Z,1195.00
2023-06-26T07:34:05.727Z,1260.00
2023-06-26T07:35:05.682Z,1246.00
2023-06-26T07:36:06.107Z,1219.00
2023-06-26T07:37:05.670Z,1213.00
2023-06-26T07:38:05.641Z,1214.00
2023-06-26T07:39:05.634Z,1215.00
2023-06-26T07:40:05.679Z,1265.00
2023-06-26T07:41:06.104Z,1296.00
2023-06-26T07:42:05.591Z,1292.00
2023-06-26T07:43:05.608Z,1294.00
2023-06-26T07:44:05.593Z,1289.00
2023-06-26T07:45:05.638Z,1273.00
2023-06-26T07:46:06.113Z,1273.00
2023-06-26T07:47:05.738Z,1075.00
2023-06-26T07:48:15.648Z,1147.00
2023-06-26T07:49:05.722Z,1131.00
2023-06-26T07:50:05.728Z,1124.00
2023-06-26T07:51:06.147Z,1126.00
2023-06-26T07:52:05.704Z,1129.00
2023-06-26T07:53:05.686Z,1135.00
2023-06-26T07:54:05.682Z,1007.00
2023-06-26T07:55:05.685Z,906.00
2023-06-26T07:56:05.717Z,871.00
2023-06-26T07:57:12.777Z,838.00
2023-06-26T07:58:05.647Z,830.00
2023-06-26T07:59:05.649Z,826.00
2023-06-26T08:02:56.390Z,800.00
2023-06-26T08:04:06.330Z,785.00
2023-06-26T08:04:57.452Z,761.00
2023-06-26T08:08:34.471Z,763.00
2023-06-26T08:09:35.470Z,758.00
2023-06-26T08:10:35.537Z,759.00
2023-06-26T08:11:35.668Z,751.00
2023-06-26T08:12:35.449Z,757.00
2023-06-26T08:13:35.402Z,785.00
2023-06-26T08:14:35.360Z,789.00
2023-06-26T08:15:35.361Z,794.00
2023-06-26T08:16:35.630Z,800.00
2023-06-26T08:17:35.338Z,808.00
2023-06-26T08:18:35.266Z,815.00
2023-06-26T08:19:35.247Z,821.00
2023-06-26T08:20:35.298Z,848.00
2023-06-26T08:21:35.628Z,857.00
2023-06-26T08:22:35.175Z,862.00
2023-06-26T08:23:35.142Z,869.00
2023-06-26T08:24:35.120Z,904.00
2023-06-26T08:25:35.094Z,905.00
2023-06-26T08:26:35.125Z,912.00
2023-06-26T08:27:35.128Z,921.00
2023-06-26T08:28:35.129Z,921.00
2023-06-26T08:29:35.820Z,921.00
2023-06-26T08:30:35.191Z,925.00
2023-06-26T08:31:35.144Z,927.00
2023-06-26T08:32:34.997Z,929.00
2023-06-26T08:33:35.128Z,941.00
2023-06-26T08:34:34.937Z,944.00
2023-06-26T08:35:34.919Z,948.00
2023-06-26T08:36:35.132Z,989.00
2023-06-26T08:37:34.913Z,968.00
2023-06-26T08:38:34.872Z,962.00
2023-06-26T08:39:34.854Z,963.00
2023-06-26T08:40:34.819Z,973.00
2023-06-26T08:41:35.136Z,987.00
2023-06-26T08:42:34.805Z,987.00
2023-06-26T08:43:34.832Z,894.00
2023-06-26T08:44:35.525Z,818.00
2023-06-26T08:45:35.791Z,804.00
2023-06-26T08:46:35.202Z,813.00
2023-06-26T08:47:34.784Z,833.00
2023-06-26T08:48:34.691Z,835.00
2023-06-26T08:49:34.665Z,837.00
2023-06-26T08:50:34.645Z,845.00
2023-06-26T08:51:34.636Z,878.00
2023-06-26T08:52:34.617Z,881.00
2023-06-26T08:53:34.605Z,881.00
2023-06-26T08:54:34.588Z,884.00
2023-06-26T08:55:34.591Z,894.00
2023-06-26T08:56:34.650Z,891.00
2023-06-26T08:57:34.590Z,912.00
2023-06-26T08:58:35.563Z,925.00
2023-06-26T08:59:34.698Z,924.00
2023-06-26T09:00:34.634Z,916.00
2023-06-26T09:01:34.731Z,921.00
2023-06-26T09:02:34.718Z,916.00
2023-06-26T09:03:34.734Z,918.00
2023-06-26T09:04:34.733Z,920.00
2023-06-26T09:05:34.776Z,924.00
2023-06-26T09:06:35.163Z,923.00
2023-06-26T09:07:34.963Z,923.00
2023-06-26T09:08:35.149Z,927.00
2023-06-26T09:09:34.939Z,929.00
2023-06-26T09:10:34.977Z,943.00
2023-06-26T09:11:35.028Z,1029.00
2023-06-26T09:12:35.081Z,983.00
2023-06-26T09:13:35.153Z,970.00
2023-06-26T09:14:35.137Z,968.00
2023-06-26T09:15:35.368Z,972.00
2023-06-26T09:16:35.288Z,1020.00
2023-06-26T09:17:35.287Z,1033.00
2023-06-26T09:18:35.659Z,1026.00
2023-06-26T09:19:37.263Z,1016.00
2023-06-26T09:20:35.326Z,1013.00
2023-06-26T09:21:35.289Z,1013.00
2023-06-26T09:22:35.290Z,1018.00
2023-06-26T09:23:35.326Z,1025.00
2023-06-26T09:24:35.800Z,1042.00
2023-06-26T09:25:35.184Z,1118.00
2023-06-26T09:26:35.175Z,1087.00
2023-06-26T09:27:35.137Z,1053.00
2023-06-26T09:28:35.170Z,1049.00
2023-06-26T09:29:35.089Z,1052.00
2023-06-26T09:30:35.101Z,1054.00
2023-06-26T09:31:40.552Z,888.00
2023-06-26T09:32:35.159Z,816.00
2023-06-26T09:33:35.169Z,842.00
2023-06-26T09:34:34.964Z,834.00
2023-06-26T09:35:34.942Z,815.00
2023-06-26T09:36:37.277Z,774.00
2023-06-26T09:37:35.175Z,764.00
2023-06-26T09:38:38.330Z,761.00
2023-06-26T09:39:35.107Z,758.00
2023-06-26T09:40:37.039Z,828.00
2023-06-26T09:41:35.048Z,830.00
2023-06-26T09:42:35.238Z,833.00
2023-06-26T09:43:36.828Z,834.00
2023-06-26T09:44:34.988Z,838.00
2023-06-26T09:45:35.084Z,846.00
2023-06-26T09:46:35.261Z,873.00
2023-06-26T09:47:35.250Z,898.00
2023-06-26T09:48:34.903Z,957.00
2023-06-26T09:49:35.173Z,959.00
2023-06-26T09:50:34.861Z,957.00
2023-06-26T09:51:34.835Z,954.00
2023-06-26T09:52:34.789Z,953.00
2023-06-26T09:53:34.741Z,962.00
2023-06-26T09:54:34.705Z,977.00
2023-06-26T09:55:34.680Z,1012.00
2023-06-26T09:56:34.753Z,1012.00
2023-06-26T09:57:34.621Z,1022.00
2023-06-26T09:58:34.596Z,1024.00
2023-06-26T09:59:34.668Z,1035.00
2023-06-26T10:00:34.544Z,1044.00
2023-06-26T10:01:34.684Z,1055.00
2023-06-26T10:02:34.623Z,1063.00
2023-06-26T10:03:34.697Z,1074.00
2023-06-26T10:04:34.855Z,1082.00
2023-06-26T10:05:34.368Z,1088.00
2023-06-26T10:06:35.022Z,1037.00
2023-06-26T10:07:34.379Z,1039.00
2023-06-26T10:08:34.265Z,1039.00
2023-06-26T10:09:34.230Z,1040.00
2023-06-26T10:10:34.221Z,1042.00
2023-06-26T10:11:34.161Z,1040.00
2023-06-26T10:12:34.176Z,1034.00
2023-06-26T10:13:34.152Z,1028.00
2023-06-26T10:14:34.071Z,1021.00
2023-06-26T10:15:34.056Z,1016.00
2023-06-26T10:16:34.087Z,1007.00
2023-06-26T10:17:34.200Z,1003.00
2023-06-26T10:18:34.048Z,993.00
2023-06-26T10:19:37.286Z,984.00
2023-06-26T10:20:34.039Z,978.00
2023-06-26T10:21:34.007Z,975.00
2023-06-26T10:22:41.573Z,971.00
2023-06-26T10:23:33.945Z,954.00
2023-06-26T10:24:34.188Z,947.00
2023-06-26T10:25:33.930Z,944.00
2023-06-26T10:26:33.854Z,940.00
2023-06-26T10:27:33.827Z,933.00
2023-06-26T10:28:33.804Z,925.00
2023-06-26T10:29:34.201Z,918.00
2023-06-26T10:30:33.738Z,913.00
2023-06-26T10:31:34.312Z,914.00
2023-06-26T10:32:33.714Z,915.00
2023-06-26T10:33:33.672Z,914.00
2023-06-26T10:34:33.626Z,910.00
2023-06-26T10:35:33.713Z,902.00
2023-06-26T10:36:33.786Z,874.00
2023-06-26T10:37:33.555Z,865.00
2023-06-26T10:38:33.524Z,852.00
2023-06-26T10:39:33.529Z,854.00
2023-06-26T10:40:34.149Z,851.00
2023-06-26T10:41:33.448Z,850.00
2023-06-26T10:42:33.416Z,851.00
2023-06-26T10:43:33.686Z,852.00
2023-06-26T10:44:33.364Z,853.00
2023-06-26T10:45:33.368Z,855.00
2023-06-26T10:46:33.689Z,850.00
2023-06-26T10:47:33.585Z,839.00
2023-06-26T10:48:33.498Z,824.00
2023-06-26T10:49:33.513Z,820.00
2023-06-26T10:50:33.564Z,820.00
2023-06-26T10:51:33.730Z,819.00
2023-06-26T10:52:33.645Z,814.00
2023-06-26T10:53:33.668Z,809.00
2023-06-26T10:54:33.717Z,810.00
2023-06-26T10:55:33.764Z,806.00
2023-06-26T10:56:34.188Z,805.00
2023-06-26T10:57:33.849Z,801.00
2023-06-26T10:58:33.891Z,794.00
2023-06-26T10:59:33.940Z,786.00
2023-06-26T11:00:34.104Z,784.00
2023-06-26T11:01:34.176Z,783.00
2023-06-26T11:02:34.094Z,774.00
2023-06-26T11:03:34.108Z,764.00
2023-06-26T11:04:34.182Z,768.00
2023-06-26T11:05:34.173Z,771.00
2023-06-26T11:06:34.726Z,769.00
2023-06-26T11:07:34.324Z,767.00
2023-06-26T11:08:34.461Z,766.00
2023-06-26T11:09:34.401Z,764.00
2023-06-26T11:10:34.498Z,761.00
2023-06-26T11:11:34.945Z,764.00
2023-06-26T11:12:34.511Z,761.00
2023-06-26T11:13:34.806Z,760.00
2023-06-26T11:14:34.912Z,755.00
2023-06-26T11:15:34.620Z,754.00
2023-06-26T11:16:34.892Z,755.00
2023-06-26T11:17:35.146Z,751.00
2023-06-26T11:18:34.700Z,750.00
2023-06-26T11:19:35.290Z,748.00
2023-06-26T11:20:34.791Z,746.00
2023-06-26T11:21:35.230Z,736.00
2023-06-26T11:22:35.061Z,738.00
2023-06-26T11:23:34.959Z,750.00
2023-06-26T11:24:35.141Z,758.00
2023-06-26T11:25:36.209Z,792.00
2023-06-26T11:26:35.254Z,801.00
2023-06-26T11:27:34.994Z,817.00
2023-06-26T11:28:35.030Z,826.00
2023-06-26T11:29:35.277Z,824.00
2023-06-26T11:30:35.417Z,822.00
2023-06-26T11:31:35.242Z,863.00
2023-06-26T11:32:35.171Z,862.00
2023-06-26T11:33:35.212Z,868.00
2023-06-26T11:34:35.167Z,870.00
2023-06-26T11:35:35.192Z,876.00
2023-06-26T11:36:35.415Z,890.00
2023-06-26T11:37:35.273Z,921.00
2023-06-26T11:38:35.240Z,935.00
2023-06-26T11:39:35.302Z,947.00
2023-06-26T11:40:35.269Z,949.00
2023-06-26T11:41:35.732Z,953.00
2023-06-26T11:42:35.303Z,967.00
2023-06-26T11:43:35.777Z,983.00
2023-06-26T11:44:35.315Z,989.00
2023-06-26T11:45:35.333Z,994.00
2023-06-26T11:46:35.339Z,1004.00
2023-06-26T11:47:35.569Z,1001.00
2023-06-26T11:48:35.419Z,927.00
2023-06-26T11:49:35.356Z,928.00
2023-06-26T11:50:35.349Z,921.00
2023-06-26T11:51:35.377Z,919.00
2023-06-26T11:52:35.385Z,914.00
2023-06-26T11:53:35.431Z,919.00
2023-06-26T11:54:35.356Z,919.00
2023-06-26T11:55:35.370Z,915.00
2023-06-26T11:56:35.342Z,909.00
2023-06-26T11:57:35.730Z,899.00
2023-06-26T11:58:35.322Z,893.00
2023-06-26T11:59:35.322Z,892.00
2023-06-26T12:00:35.298Z,898.00
2023-06-26T12:01:35.333Z,886.00
2023-06-26T12:02:35.753Z,883.00
2023-06-26T12:03:35.328Z,881.00
2023-06-26T12:04:35.373Z,885.00
2023-06-26T12:05:35.154Z,883.00
2023-06-26T12:06:35.254Z,881.00
2023-06-26T12:07:35.300Z,882.00
2023-06-26T12:08:35.080Z,893.00
2023-06-26T12:09:35.046Z,902.00
2023-06-26T12:10:35.019Z,916.00
2023-06-26T12:11:35.317Z,922.00
2023-06-26T12:12:35.227Z,930.00
2023-06-26T12:13:35.232Z,933.00
2023-06-26T12:14:34.901Z,941.00
2023-06-26T12:15:35.869Z,965.00
2023-06-26T12:16:34.825Z,971.00
2023-06-26T12:17:34.829Z,969.00
2023-06-26T12:18:34.754Z,971.00
2023-06-26T12:19:34.736Z,968.00
2023-06-26T12:20:34.684Z,963.00
2023-06-26T12:21:34.746Z,965.00
2023-06-26T12:22:34.916Z,958.00
2023-06-26T12:23:34.815Z,936.00
2023-06-26T12:24:34.561Z,941.00
2023-06-26T12:25:34.778Z,945.00
2023-06-26T12:26:34.520Z,933.00
2023-06-26T12:27:34.509Z,925.00
2023-06-26T12:28:34.470Z,932.00
2023-06-26T12:29:34.472Z,924.00
2023-06-26T12:30:34.447Z,917.00
2023-06-26T12:31:34.790Z,908.00
2023-06-26T12:32:34.462Z,909.00